sensor_id;sensor_type;location;lat;lon;timestamp;P1;durP1;ratioP1;P2;durP2;ratioP2
3333;SDS011;1679;50.392;8.008;2023-08-01T00:02:22;3.70;;;3.40;;
3333;SDS011;1679;50.392;8.008;2023-08-01T00:04:48;3.90;;;3.50;;
3333;SDS011;1679;50.392;8.008;2023-08-01T00:07:13;3.90;;;3.53;;
3333;SDS011;1679;50.392;8.008;2023-08-01T00:09:39;3.37;;;3.17;;
3333;SDS011;1679;50.392;8.008;2023-08-01T00:12:04;3.40;;;3.00;;
3333;SDS011;1679;50.392;8.008;2023-08-01T00:14:31;4.17;;;3.73;;
3333;SDS011;1679;50.392;8.008;2023-08-01T00:16:57;3.80;;;3.23;;
3333;SDS011;1679;50.392;8.008;2023-08-01T00:19:23;3.80;;;2.80;;
3333;SDS011;1679;50.392;8.008;2023-08-01T00:21:49;5.17;;;3.60;;
3333;SDS011;1679;50.392;8.008;2023-08-01T00:24:15;4.10;;;3.80;;
3333;SDS011;1679;50.392;8.008;2023-08-01T00:26:40;4.30;;;3.90;;
3333;SDS011;1679;50.392;8.008;2023-08-01T00:29:06;4.93;;;3.87;;
3333;SDS011;1679;50.392;8.008;2023-08-01T00:31:32;7.10;;;3.30;;
3333;SDS011;1679;50.392;8.008;2023-08-01T00:33:58;3.57;;;3.30;;
3333;SDS011;1679;50.392;8.008;2023-08-01T00:36:25;3.13;;;2.80;;
3333;SDS011;1679;50.392;8.008;2023-08-01T00:38:52;3.67;;;3.17;;
3333;SDS011;1679;50.392;8.008;2023-08-01T00:41:17;3.67;;;2.90;;
3333;SDS011;1679;50.392;8.008;2023-08-01T00:43:43;3.40;;;3.00;;
3333;SDS011;1679;50.392;8.008;2023-08-01T00:46:08;3.50;;;3.20;;
3333;SDS011;1679;50.392;8.008;2023-08-01T00:48:34;4.80;;;2.87;;
3333;SDS011;1679;50.392;8.008;2023-08-01T00:51:03;4.03;;;3.17;;
3333;SDS011;1679;50.392;8.008;2023-08-01T00:53:30;2.90;;;2.70;;
3333;SDS011;1679;50.392;8.008;2023-08-01T00:55:58;3.17;;;2.97;;
3333;SDS011;1679;50.392;8.008;2023-08-01T00:58:24;3.53;;;3.23;;
3333;SDS011;1679;50.392;8.008;2023-08-01T01:00:51;3.40;;;2.60;;
3333;SDS011;1679;50.392;8.008;2023-08-01T01:03:16;9.10;;;3.20;;
3333;SDS011;1679;50.392;8.008;2023-08-01T01:05:47;3.00;;;2.67;;
3333;SDS011;1679;50.392;8.008;2023-08-01T01:08:27;2.70;;;2.50;;
3333;SDS011;1679;50.392;8.008;2023-08-01T01:10:53;3.20;;;2.87;;
3333;SDS011;1679;50.392;8.008;2023-08-01T01:13:20;2.20;;;2.10;;
3333;SDS011;1679;50.392;8.008;2023-08-01T01:15:45;2.23;;;2.03;;
3333;SDS011;1679;50.392;8.008;2023-08-01T01:18:11;2.00;;;1.90;;
3333;SDS011;1679;50.392;8.008;2023-08-01T01:20:36;3.37;;;2.40;;
3333;SDS011;1679;50.392;8.008;2023-08-01T01:23:04;4.10;;;1.93;;
3333;SDS011;1679;50.392;8.008;2023-08-01T01:25:31;4.67;;;2.17;;
3333;SDS011;1679;50.392;8.008;2023-08-01T01:27:57;2.27;;;2.07;;
3333;SDS011;1679;50.392;8.008;2023-08-01T01:30:24;2.93;;;2.73;;
3333;SDS011;1679;50.392;8.008;2023-08-01T01:32:51;2.00;;;1.90;;
3333;SDS011;1679;50.392;8.008;2023-08-01T01:35:17;2.30;;;2.10;;
3333;SDS011;1679;50.392;8.008;2023-08-01T01:37:43;2.00;;;1.77;;
3333;SDS011;1679;50.392;8.008;2023-08-01T01:40:08;1.97;;;1.87;;
3333;SDS011;1679;50.392;8.008;2023-08-01T01:42:34;2.07;;;1.97;;
3333;SDS011;1679;50.392;8.008;2023-08-01T01:45:00;2.40;;;1.67;;
3333;SDS011;1679;50.392;8.008;2023-08-01T01:47:26;2.03;;;1.83;;
3333;SDS011;1679;50.392;8.008;2023-08-01T01:49:53;2.00;;;1.90;;
3333;SDS011;1679;50.392;8.008;2023-08-01T01:52:18;1.70;;;1.60;;
3333;SDS011;1679;50.392;8.008;2023-08-01T01:54:46;5.93;;;1.80;;
3333;SDS011;1679;50.392;8.008;2023-08-01T01:57:12;2.07;;;1.97;;
3333;SDS011;1679;50.392;8.008;2023-08-01T01:59:37;1.70;;;1.60;;
3333;SDS011;1679;50.392;8.008;2023-08-01T02:02:03;2.27;;;1.50;;
3333;SDS011;1679;50.392;8.008;2023-08-01T02:04:29;1.53;;;1.43;;
3333;SDS011;1679;50.392;8.008;2023-08-01T02:06:54;2.03;;;1.93;;
3333;SDS011;1679;50.392;8.008;2023-08-01T02:09:20;1.70;;;1.60;;
3333;SDS011;1679;50.392;8.008;2023-08-01T02:11:45;1.60;;;1.50;;
3333;SDS011;1679;50.392;8.008;2023-08-01T02:14:12;1.60;;;1.50;;
3333;SDS011;1679;50.392;8.008;2023-08-01T02:16:38;1.67;;;1.57;;
3333;SDS011;1679;50.392;8.008;2023-08-01T02:19:05;1.73;;;1.60;;
3333;SDS011;1679;50.392;8.008;2023-08-01T02:21:30;2.57;;;1.47;;
3333;SDS011;1679;50.392;8.008;2023-08-01T02:23:57;3.50;;;1.33;;
3333;SDS011;1679;50.392;8.008;2023-08-01T02:26:23;1.30;;;1.20;;
3333;SDS011;1679;50.392;8.008;2023-08-01T02:28:49;2.70;;;1.87;;
3333;SDS011;1679;50.392;8.008;2023-08-01T02:31:15;1.50;;;1.30;;
3333;SDS011;1679;50.392;8.008;2023-08-01T02:33:42;2.03;;;1.30;;
3333;SDS011;1679;50.392;8.008;2023-08-01T02:36:08;1.67;;;1.57;;
3333;SDS011;1679;50.392;8.008;2023-08-01T02:38:34;2.40;;;1.37;;
3333;SDS011;1679;50.392;8.008;2023-08-01T02:40:59;5.13;;;1.50;;
3333;SDS011;1679;50.392;8.008;2023-08-01T02:43:25;1.90;;;1.40;;
3333;SDS011;1679;50.392;8.008;2023-08-01T02:45:50;1.30;;;1.20;;
3333;SDS011;1679;50.392;8.008;2023-08-01T02:48:16;2.23;;;1.13;;
3333;SDS011;1679;50.392;8.008;2023-08-01T02:50:43;1.50;;;1.40;;
3333;SDS011;1679;50.392;8.008;2023-08-01T02:53:08;2.00;;;1.60;;
3333;SDS011;1679;50.392;8.008;2023-08-01T02:55:34;1.50;;;1.20;;
3333;SDS011;1679;50.392;8.008;2023-08-01T02:57:59;9.53;;;1.70;;
3333;SDS011;1679;50.392;8.008;2023-08-01T03:00:25;1.60;;;1.30;;
3333;SDS011;1679;50.392;8.008;2023-08-01T03:02:52;1.33;;;1.23;;
3333;SDS011;1679;50.392;8.008;2023-08-01T03:05:17;1.20;;;1.00;;
3333;SDS011;1679;50.392;8.008;2023-08-01T03:07:43;2.80;;;1.40;;
3333;SDS011;1679;50.392;8.008;2023-08-01T03:10:08;1.73;;;1.13;;
3333;SDS011;1679;50.392;8.008;2023-08-01T03:12:36;0.93;;;0.80;;
3333;SDS011;1679;50.392;8.008;2023-08-01T03:15:02;2.07;;;1.20;;
3333;SDS011;1679;50.392;8.008;2023-08-01T03:17:28;1.60;;;0.93;;
3333;SDS011;1679;50.392;8.008;2023-08-01T03:19:53;1.20;;;1.00;;
3333;SDS011;1679;50.392;8.008;2023-08-01T03:22:19;1.33;;;1.00;;
3333;SDS011;1679;50.392;8.008;2023-08-01T03:24:45;1.27;;;0.83;;
3333;SDS011;1679;50.392;8.008;2023-08-01T03:27:10;1.00;;;0.60;;
3333;SDS011;1679;50.392;8.008;2023-08-01T03:29:37;0.97;;;0.70;;
3333;SDS011;1679;50.392;8.008;2023-08-01T03:32:04;0.90;;;0.60;;
3333;SDS011;1679;50.392;8.008;2023-08-01T03:34:30;1.50;;;0.57;;
3333;SDS011;1679;50.392;8.008;2023-08-01T03:36:55;1.27;;;0.70;;
3333;SDS011;1679;50.392;8.008;2023-08-01T03:39:21;0.97;;;0.73;;
3333;SDS011;1679;50.392;8.008;2023-08-01T03:41:46;1.30;;;0.67;;
3333;SDS011;1679;50.392;8.008;2023-08-01T03:44:12;1.53;;;0.43;;
3333;SDS011;1679;50.392;8.008;2023-08-01T03:46:38;1.10;;;0.60;;
3333;SDS011;1679;50.392;8.008;2023-08-01T03:49:03;1.57;;;0.90;;
3333;SDS011;1679;50.392;8.008;2023-08-01T03:51:29;1.07;;;0.70;;
3333;SDS011;1679;50.392;8.008;2023-08-01T03:53:54;1.73;;;0.53;;
3333;SDS011;1679;50.392;8.008;2023-08-01T03:56:19;1.00;;;0.60;;
3333;SDS011;1679;50.392;8.008;2023-08-01T03:58:46;0.70;;;0.40;;
3333;SDS011;1679;50.392;8.008;2023-08-01T04:01:12;0.90;;;0.40;;
3333;SDS011;1679;50.392;8.008;2023-08-01T04:03:39;0.83;;;0.50;;
3333;SDS011;1679;50.392;8.008;2023-08-01T04:06:05;1.77;;;0.57;;
3333;SDS011;1679;50.392;8.008;2023-08-01T04:08:30;0.90;;;0.40;;
3333;SDS011;1679;50.392;8.008;2023-08-01T04:10:57;0.80;;;0.60;;
3333;SDS011;1679;50.392;8.008;2023-08-01T04:13:24;1.27;;;0.40;;
3333;SDS011;1679;50.392;8.008;2023-08-01T04:15:49;0.73;;;0.40;;
3333;SDS011;1679;50.392;8.008;2023-08-01T04:18:15;0.90;;;0.50;;
3333;SDS011;1679;50.392;8.008;2023-08-01T04:20:40;0.93;;;0.50;;
3333;SDS011;1679;50.392;8.008;2023-08-01T04:23:06;0.93;;;0.50;;
3333;SDS011;1679;50.392;8.008;2023-08-01T04:25:31;4.50;;;0.60;;
3333;SDS011;1679;50.392;8.008;2023-08-01T04:27:57;1.67;;;0.60;;
3333;SDS011;1679;50.392;8.008;2023-08-01T04:30:23;9.40;;;1.00;;
3333;SDS011;1679;50.392;8.008;2023-08-01T04:32:50;13.90;;;0.90;;
3333;SDS011;1679;50.392;8.008;2023-08-01T04:35:16;1.00;;;0.47;;
3333;SDS011;1679;50.392;8.008;2023-08-01T04:37:41;1.23;;;0.40;;
3333;SDS011;1679;50.392;8.008;2023-08-01T04:40:07;0.90;;;0.40;;
3333;SDS011;1679;50.392;8.008;2023-08-01T04:42:34;3.90;;;1.10;;
3333;SDS011;1679;50.392;8.008;2023-08-01T04:45:00;4.20;;;1.27;;
3333;SDS011;1679;50.392;8.008;2023-08-01T04:47:25;0.70;;;0.33;;
3333;SDS011;1679;50.392;8.008;2023-08-01T04:49:54;0.60;;;0.30;;
3333;SDS011;1679;50.392;8.008;2023-08-01T04:52:19;1.27;;;0.30;;
3333;SDS011;1679;50.392;8.008;2023-08-01T04:54:46;0.80;;;0.30;;
3333;SDS011;1679;50.392;8.008;2023-08-01T04:57:11;1.47;;;0.43;;
3333;SDS011;1679;50.392;8.008;2023-08-01T04:59:37;1.30;;;0.40;;
3333;SDS011;1679;50.392;8.008;2023-08-01T05:02:02;0.70;;;0.40;;
3333;SDS011;1679;50.392;8.008;2023-08-01T05:04:28;0.90;;;0.40;;
3333;SDS011;1679;50.392;8.008;2023-08-01T05:06:54;0.80;;;0.50;;
3333;SDS011;1679;50.392;8.008;2023-08-01T05:09:19;3.73;;;0.70;;
3333;SDS011;1679;50.392;8.008;2023-08-01T05:11:46;1.53;;;0.70;;
3333;SDS011;1679;50.392;8.008;2023-08-01T05:14:12;1.77;;;0.73;;
3333;SDS011;1679;50.392;8.008;2023-08-01T05:16:38;3.00;;;0.77;;
3333;SDS011;1679;50.392;8.008;2023-08-01T05:19:03;1.07;;;0.87;;
3333;SDS011;1679;50.392;8.008;2023-08-01T05:21:28;1.13;;;0.90;;
3333;SDS011;1679;50.392;8.008;2023-08-01T05:23:54;1.67;;;1.57;;
3333;SDS011;1679;50.392;8.008;2023-08-01T05:26:19;4.90;;;1.93;;
3333;SDS011;1679;50.392;8.008;2023-08-01T05:28:45;1.40;;;1.30;;
3333;SDS011;1679;50.392;8.008;2023-08-01T05:31:11;1.73;;;1.50;;
3333;SDS011;1679;50.392;8.008;2023-08-01T05:33:38;4.50;;;1.77;;
3333;SDS011;1679;50.392;8.008;2023-08-01T05:36:03;1.60;;;1.50;;
3333;SDS011;1679;50.392;8.008;2023-08-01T05:38:29;1.30;;;1.20;;
3333;SDS011;1679;50.392;8.008;2023-08-01T05:40:54;1.93;;;1.60;;
3333;SDS011;1679;50.392;8.008;2023-08-01T05:43:21;1.57;;;1.47;;
3333;SDS011;1679;50.392;8.008;2023-08-01T05:45:47;2.30;;;1.80;;
3333;SDS011;1679;50.392;8.008;2023-08-01T05:48:14;1.90;;;1.80;;
3333;SDS011;1679;50.392;8.008;2023-08-01T05:50:39;1.63;;;1.53;;
3333;SDS011;1679;50.392;8.008;2023-08-01T05:53:05;1.67;;;1.57;;
3333;SDS011;1679;50.392;8.008;2023-08-01T05:55:32;2.87;;;1.70;;
3333;SDS011;1679;50.392;8.008;2023-08-01T05:57:58;2.23;;;1.90;;
3333;SDS011;1679;50.392;8.008;2023-08-01T06:00:23;2.43;;;1.63;;
3333;SDS011;1679;50.392;8.008;2023-08-01T06:02:49;1.50;;;1.40;;
3333;SDS011;1679;50.392;8.008;2023-08-01T06:05:14;1.63;;;1.47;;
3333;SDS011;1679;50.392;8.008;2023-08-01T06:07:42;1.63;;;1.53;;
3333;SDS011;1679;50.392;8.008;2023-08-01T06:10:08;1.83;;;1.73;;
3333;SDS011;1679;50.392;8.008;2023-08-01T06:12:34;1.50;;;1.40;;
3333;SDS011;1679;50.392;8.008;2023-08-01T06:15:01;1.80;;;1.70;;
3333;SDS011;1679;50.392;8.008;2023-08-01T06:17:27;1.70;;;1.60;;
3333;SDS011;1679;50.392;8.008;2023-08-01T06:19:52;1.70;;;1.60;;
3333;SDS011;1679;50.392;8.008;2023-08-01T06:22:19;2.67;;;1.87;;
3333;SDS011;1679;50.392;8.008;2023-08-01T06:24:45;1.80;;;1.60;;
3333;SDS011;1679;50.392;8.008;2023-08-01T06:27:10;1.43;;;1.33;;
3333;SDS011;1679;50.392;8.008;2023-08-01T06:29:36;1.50;;;1.40;;
3333;SDS011;1679;50.392;8.008;2023-08-01T06:32:02;3.90;;;1.67;;
3333;SDS011;1679;50.392;8.008;2023-08-01T06:34:28;2.00;;;1.37;;
3333;SDS011;1679;50.392;8.008;2023-08-01T06:36:54;3.37;;;2.00;;
3333;SDS011;1679;50.392;8.008;2023-08-01T06:39:20;1.50;;;1.37;;
3333;SDS011;1679;50.392;8.008;2023-08-01T06:41:46;1.57;;;1.47;;
3333;SDS011;1679;50.392;8.008;2023-08-01T06:44:11;2.03;;;1.50;;
3333;SDS011;1679;50.392;8.008;2023-08-01T06:46:37;3.33;;;1.73;;
3333;SDS011;1679;50.392;8.008;2023-08-01T06:49:04;3.20;;;2.10;;
3333;SDS011;1679;50.392;8.008;2023-08-01T06:51:29;2.43;;;1.83;;
3333;SDS011;1679;50.392;8.008;2023-08-01T06:53:55;2.60;;;1.87;;
3333;SDS011;1679;50.392;8.008;2023-08-01T06:56:20;3.47;;;1.63;;
3333;SDS011;1679;50.392;8.008;2023-08-01T06:58:47;2.50;;;2.00;;
3333;SDS011;1679;50.392;8.008;2023-08-01T07:01:13;1.90;;;1.40;;
3333;SDS011;1679;50.392;8.008;2023-08-01T07:03:40;2.03;;;1.63;;
3333;SDS011;1679;50.392;8.008;2023-08-01T07:06:06;1.77;;;1.67;;
3333;SDS011;1679;50.392;8.008;2023-08-01T07:08:32;1.60;;;1.40;;
3333;SDS011;1679;50.392;8.008;2023-08-01T07:10:58;1.77;;;1.67;;
3333;SDS011;1679;50.392;8.008;2023-08-01T07:13:25;2.70;;;1.80;;
3333;SDS011;1679;50.392;8.008;2023-08-01T07:15:51;1.70;;;1.60;;
3333;SDS011;1679;50.392;8.008;2023-08-01T07:18:16;2.10;;;1.90;;
3333;SDS011;1679;50.392;8.008;2023-08-01T07:20:42;2.33;;;1.70;;
3333;SDS011;1679;50.392;8.008;2023-08-01T07:23:07;1.97;;;1.40;;
3333;SDS011;1679;50.392;8.008;2023-08-01T07:25:34;1.67;;;1.53;;
3333;SDS011;1679;50.392;8.008;2023-08-01T07:27:59;1.23;;;1.10;;
3333;SDS011;1679;50.392;8.008;2023-08-01T07:30:25;2.60;;;1.50;;
3333;SDS011;1679;50.392;8.008;2023-08-01T07:32:50;2.80;;;1.20;;
3333;SDS011;1679;50.392;8.008;2023-08-01T07:35:16;1.73;;;1.47;;
3333;SDS011;1679;50.392;8.008;2023-08-01T07:37:42;2.33;;;1.57;;
3333;SDS011;1679;50.392;8.008;2023-08-01T07:40:08;4.60;;;1.53;;
3333;SDS011;1679;50.392;8.008;2023-08-01T07:42:35;1.67;;;1.57;;
3333;SDS011;1679;50.392;8.008;2023-08-01T07:45:02;1.70;;;1.60;;
3333;SDS011;1679;50.392;8.008;2023-08-01T07:47:27;1.80;;;1.30;;
3333;SDS011;1679;50.392;8.008;2023-08-01T07:49:53;1.70;;;1.43;;
3333;SDS011;1679;50.392;8.008;2023-08-01T07:52:19;1.87;;;1.63;;
3333;SDS011;1679;50.392;8.008;2023-08-01T07:54:44;1.93;;;1.83;;
3333;SDS011;1679;50.392;8.008;2023-08-01T07:57:10;3.40;;;1.40;;
3333;SDS011;1679;50.392;8.008;2023-08-01T07:59:36;2.73;;;2.13;;
3333;SDS011;1679;50.392;8.008;2023-08-01T08:02:01;2.53;;;1.90;;
3333;SDS011;1679;50.392;8.008;2023-08-01T08:04:27;4.60;;;2.13;;
3333;SDS011;1679;50.392;8.008;2023-08-01T08:06:52;1.90;;;1.80;;
3333;SDS011;1679;50.392;8.008;2023-08-01T08:09:19;2.83;;;1.97;;
3333;SDS011;1679;50.392;8.008;2023-08-01T08:11:47;5.30;;;1.97;;
3333;SDS011;1679;50.392;8.008;2023-08-01T08:14:13;2.87;;;2.40;;
3333;SDS011;1679;50.392;8.008;2023-08-01T08:16:40;4.37;;;1.90;;
3333;SDS011;1679;50.392;8.008;2023-08-01T08:19:06;2.60;;;2.03;;
3333;SDS011;1679;50.392;8.008;2023-08-01T08:21:31;2.80;;;2.13;;
3333;SDS011;1679;50.392;8.008;2023-08-01T08:23:57;2.10;;;2.00;;
3333;SDS011;1679;50.392;8.008;2023-08-01T08:26:22;2.63;;;2.03;;
3333;SDS011;1679;50.392;8.008;2023-08-01T08:28:48;4.73;;;1.90;;
3333;SDS011;1679;50.392;8.008;2023-08-01T08:31:14;1.80;;;1.70;;
3333;SDS011;1679;50.392;8.008;2023-08-01T08:33:40;4.47;;;2.30;;
3333;SDS011;1679;50.392;8.008;2023-08-01T08:36:05;2.47;;;1.80;;
3333;SDS011;1679;50.392;8.008;2023-08-01T08:38:31;2.50;;;2.30;;
3333;SDS011;1679;50.392;8.008;2023-08-01T08:41:09;2.50;;;1.60;;
3333;SDS011;1679;50.392;8.008;2023-08-01T08:43:36;2.20;;;2.10;;
3333;SDS011;1679;50.392;8.008;2023-08-01T08:46:03;1.87;;;1.77;;
3333;SDS011;1679;50.392;8.008;2023-08-01T08:48:30;2.40;;;2.30;;
3333;SDS011;1679;50.392;8.008;2023-08-01T08:50:57;2.83;;;1.93;;
3333;SDS011;1679;50.392;8.008;2023-08-01T08:53:24;2.23;;;2.03;;
3333;SDS011;1679;50.392;8.008;2023-08-01T08:55:51;4.63;;;2.20;;
3333;SDS011;1679;50.392;8.008;2023-08-01T08:58:16;2.53;;;2.33;;
3333;SDS011;1679;50.392;8.008;2023-08-01T09:00:43;2.40;;;2.20;;
3333;SDS011;1679;50.392;8.008;2023-08-01T09:03:09;3.63;;;2.50;;
3333;SDS011;1679;50.392;8.008;2023-08-01T09:05:36;5.73;;;2.53;;
3333;SDS011;1679;50.392;8.008;2023-08-01T09:08:14;4.00;;;2.60;;
3333;SDS011;1679;50.392;8.008;2023-08-01T09:10:43;3.30;;;2.60;;
3333;SDS011;1679;50.392;8.008;2023-08-01T09:13:08;2.67;;;2.47;;
3333;SDS011;1679;50.392;8.008;2023-08-01T09:15:34;4.47;;;2.37;;
3333;SDS011;1679;50.392;8.008;2023-08-01T09:18:05;2.53;;;2.33;;
3333;SDS011;1679;50.392;8.008;2023-08-01T09:20:45;2.40;;;2.20;;
3333;SDS011;1679;50.392;8.008;2023-08-01T09:23:11;2.53;;;2.33;;
3333;SDS011;1679;50.392;8.008;2023-08-01T09:25:37;2.53;;;2.30;;
3333;SDS011;1679;50.392;8.008;2023-08-01T09:28:14;2.53;;;2.33;;
3333;SDS011;1679;50.392;8.008;2023-08-01T09:30:51;2.00;;;1.90;;
3333;SDS011;1679;50.392;8.008;2023-08-01T09:33:22;2.60;;;2.43;;
3333;SDS011;1679;50.392;8.008;2023-08-01T09:35:51;2.50;;;2.17;;
3333;SDS011;1679;50.392;8.008;2023-08-01T09:38:17;3.10;;;2.80;;
3333;SDS011;1679;50.392;8.008;2023-08-01T09:40:43;3.00;;;2.40;;
3333;SDS011;1679;50.392;8.008;2023-08-01T09:43:11;1.90;;;1.80;;
3333;SDS011;1679;50.392;8.008;2023-08-01T09:45:48;4.50;;;2.30;;
3333;SDS011;1679;50.392;8.008;2023-08-01T09:48:22;2.57;;;2.37;;
3333;SDS011;1679;50.392;8.008;2023-08-01T09:50:51;5.57;;;2.13;;
3333;SDS011;1679;50.392;8.008;2023-08-01T09:53:18;2.30;;;2.10;;
3333;SDS011;1679;50.392;8.008;2023-08-01T09:55:43;2.90;;;2.63;;
3333;SDS011;1679;50.392;8.008;2023-08-01T09:58:13;2.30;;;2.10;;
3333;SDS011;1679;50.392;8.008;2023-08-01T10:00:40;2.80;;;2.50;;
3333;SDS011;1679;50.392;8.008;2023-08-01T10:03:05;6.00;;;3.17;;
3333;SDS011;1679;50.392;8.008;2023-08-01T10:05:32;2.77;;;2.67;;
3333;SDS011;1679;50.392;8.008;2023-08-01T10:07:59;3.37;;;2.70;;
3333;SDS011;1679;50.392;8.008;2023-08-01T10:10:26;4.17;;;2.80;;
3333;SDS011;1679;50.392;8.008;2023-08-01T10:12:53;4.60;;;2.27;;
3333;SDS011;1679;50.392;8.008;2023-08-01T10:15:21;2.33;;;2.13;;
3333;SDS011;1679;50.392;8.008;2023-08-01T10:17:47;3.10;;;2.80;;
3333;SDS011;1679;50.392;8.008;2023-08-01T10:20:12;3.80;;;2.53;;
3333;SDS011;1679;50.392;8.008;2023-08-01T10:22:40;4.40;;;2.90;;
3333;SDS011;1679;50.392;8.008;2023-08-01T10:25:06;3.50;;;2.30;;
3333;SDS011;1679;50.392;8.008;2023-08-01T10:27:34;3.33;;;2.77;;
3333;SDS011;1679;50.392;8.008;2023-08-01T10:30:01;3.43;;;2.60;;
3333;SDS011;1679;50.392;8.008;2023-08-01T10:32:35;2.97;;;2.77;;
3333;SDS011;1679;50.392;8.008;2023-08-01T10:35:02;2.93;;;2.30;;
3333;SDS011;1679;50.392;8.008;2023-08-01T10:37:42;3.80;;;2.10;;
3333;SDS011;1679;50.392;8.008;2023-08-01T10:40:15;2.20;;;2.00;;
3333;SDS011;1679;50.392;8.008;2023-08-01T10:42:41;2.13;;;1.90;;
3333;SDS011;1679;50.392;8.008;2023-08-01T10:45:20;2.50;;;2.10;;
3333;SDS011;1679;50.392;8.008;2023-08-01T10:47:50;2.67;;;2.30;;
3333;SDS011;1679;50.392;8.008;2023-08-01T10:50:16;2.20;;;2.00;;
3333;SDS011;1679;50.392;8.008;2023-08-01T10:52:42;2.40;;;2.20;;
3333;SDS011;1679;50.392;8.008;2023-08-01T10:55:10;2.70;;;2.37;;
3333;SDS011;1679;50.392;8.008;2023-08-01T10:57:38;2.30;;;2.10;;
3333;SDS011;1679;50.392;8.008;2023-08-01T11:00:15;4.23;;;2.07;;
3333;SDS011;1679;50.392;8.008;2023-08-01T11:02:48;2.50;;;1.73;;
3333;SDS011;1679;50.392;8.008;2023-08-01T11:05:17;2.53;;;2.30;;
3333;SDS011;1679;50.392;8.008;2023-08-01T11:07:42;2.10;;;2.00;;
3333;SDS011;1679;50.392;8.008;2023-08-01T11:10:23;2.90;;;1.80;;
3333;SDS011;1679;50.392;8.008;2023-08-01T11:12:50;2.00;;;1.80;;
3333;SDS011;1679;50.392;8.008;2023-08-01T11:15:15;1.47;;;1.37;;
3333;SDS011;1679;50.392;8.008;2023-08-01T11:18:14;1.90;;;1.80;;
3333;SDS011;1679;50.392;8.008;2023-08-01T11:20:38;2.30;;;2.10;;
3333;SDS011;1679;50.392;8.008;2023-08-01T11:23:04;5.27;;;2.00;;
3333;SDS011;1679;50.392;8.008;2023-08-01T11:25:33;1.67;;;1.43;;
3333;SDS011;1679;50.392;8.008;2023-08-01T11:28:09;2.20;;;1.30;;
3333;SDS011;1679;50.392;8.008;2023-08-01T11:30:36;3.57;;;1.20;;
3333;SDS011;1679;50.392;8.008;2023-08-01T11:33:02;1.63;;;1.53;;
3333;SDS011;1679;50.392;8.008;2023-08-01T11:35:52;2.10;;;1.33;;
3333;SDS011;1679;50.392;8.008;2023-08-01T11:38:25;1.93;;;1.83;;
3333;SDS011;1679;50.392;8.008;2023-08-01T11:40:54;2.13;;;1.27;;
3333;SDS011;1679;50.392;8.008;2023-08-01T11:43:21;1.27;;;1.17;;
3333;SDS011;1679;50.392;8.008;2023-08-01T11:45:50;1.80;;;1.57;;
3333;SDS011;1679;50.392;8.008;2023-08-01T11:48:23;4.23;;;1.67;;
3333;SDS011;1679;50.392;8.008;2023-08-01T11:50:49;4.60;;;1.80;;
3333;SDS011;1679;50.392;8.008;2023-08-01T11:53:21;1.37;;;1.17;;
3333;SDS011;1679;50.392;8.008;2023-08-01T11:55:49;1.73;;;1.50;;
3333;SDS011;1679;50.392;8.008;2023-08-01T11:58:27;2.97;;;1.17;;
3333;SDS011;1679;50.392;8.008;2023-08-01T12:01:05;2.47;;;1.97;;
3333;SDS011;1679;50.392;8.008;2023-08-01T12:03:31;1.90;;;1.70;;
3333;SDS011;1679;50.392;8.008;2023-08-01T12:06:06;1.63;;;1.53;;
3333;SDS011;1679;50.392;8.008;2023-08-01T12:08:33;3.10;;;2.43;;
3333;SDS011;1679;50.392;8.008;2023-08-01T12:10:59;1.47;;;1.37;;
3333;SDS011;1679;50.392;8.008;2023-08-01T12:13:25;1.70;;;1.60;;
3333;SDS011;1679;50.392;8.008;2023-08-01T12:15:52;2.33;;;1.50;;
3333;SDS011;1679;50.392;8.008;2023-08-01T12:18:22;2.07;;;1.30;;
3333;SDS011;1679;50.392;8.008;2023-08-01T12:20:52;1.70;;;1.60;;
3333;SDS011;1679;50.392;8.008;2023-08-01T12:23:18;3.23;;;1.50;;
3333;SDS011;1679;50.392;8.008;2023-08-01T12:25:44;1.27;;;1.10;;
3333;SDS011;1679;50.392;8.008;2023-08-01T12:28:12;1.47;;;1.30;;
3333;SDS011;1679;50.392;8.008;2023-08-01T12:30:40;2.20;;;1.30;;
3333;SDS011;1679;50.392;8.008;2023-08-01T12:33:07;1.53;;;1.43;;
3333;SDS011;1679;50.392;8.008;2023-08-01T12:35:33;3.90;;;1.40;;
3333;SDS011;1679;50.392;8.008;2023-08-01T12:37:58;3.10;;;1.43;;
3333;SDS011;1679;50.392;8.008;2023-08-01T12:40:25;1.70;;;1.60;;
3333;SDS011;1679;50.392;8.008;2023-08-01T12:42:51;2.10;;;1.90;;
3333;SDS011;1679;50.392;8.008;2023-08-01T12:45:16;2.10;;;1.90;;
3333;SDS011;1679;50.392;8.008;2023-08-01T12:47:43;2.70;;;1.80;;
3333;SDS011;1679;50.392;8.008;2023-08-01T12:50:09;2.27;;;1.90;;
3333;SDS011;1679;50.392;8.008;2023-08-01T12:52:34;3.20;;;1.93;;
3333;SDS011;1679;50.392;8.008;2023-08-01T12:55:00;2.40;;;2.20;;
3333;SDS011;1679;50.392;8.008;2023-08-01T12:57:25;3.40;;;2.40;;
3333;SDS011;1679;50.392;8.008;2023-08-01T12:59:51;3.67;;;2.50;;
3333;SDS011;1679;50.392;8.008;2023-08-01T13:02:16;2.60;;;2.40;;
3333;SDS011;1679;50.392;8.008;2023-08-01T13:04:42;2.10;;;1.90;;
3333;SDS011;1679;50.392;8.008;2023-08-01T13:07:09;1.97;;;1.87;;
3333;SDS011;1679;50.392;8.008;2023-08-01T13:09:34;1.70;;;1.33;;
3333;SDS011;1679;50.392;8.008;2023-08-01T13:12:00;2.83;;;1.50;;
3333;SDS011;1679;50.392;8.008;2023-08-01T13:14:25;2.90;;;1.43;;
3333;SDS011;1679;50.392;8.008;2023-08-01T13:16:51;3.37;;;1.20;;
3333;SDS011;1679;50.392;8.008;2023-08-01T13:19:18;2.17;;;1.57;;
3333;SDS011;1679;50.392;8.008;2023-08-01T13:21:44;1.30;;;1.20;;
3333;SDS011;1679;50.392;8.008;2023-08-01T13:24:10;2.97;;;1.53;;
3333;SDS011;1679;50.392;8.008;2023-08-01T13:26:36;2.13;;;1.27;;
3333;SDS011;1679;50.392;8.008;2023-08-01T13:29:02;1.40;;;1.13;;
3333;SDS011;1679;50.392;8.008;2023-08-01T13:31:28;1.40;;;1.00;;
3333;SDS011;1679;50.392;8.008;2023-08-01T13:33:57;1.47;;;1.37;;
3333;SDS011;1679;50.392;8.008;2023-08-01T13:36:23;2.60;;;1.10;;
3333;SDS011;1679;50.392;8.008;2023-08-01T13:38:49;1.93;;;1.40;;
3333;SDS011;1679;50.392;8.008;2023-08-01T13:41:15;1.57;;;1.47;;
3333;SDS011;1679;50.392;8.008;2023-08-01T13:43:41;1.20;;;1.10;;
3333;SDS011;1679;50.392;8.008;2023-08-01T13:46:17;1.10;;;1.00;;
3333;SDS011;1679;50.392;8.008;2023-08-01T13:48:44;3.23;;;1.27;;
3333;SDS011;1679;50.392;8.008;2023-08-01T13:51:11;1.50;;;1.20;;
3333;SDS011;1679;50.392;8.008;2023-08-01T13:53:37;1.97;;;0.90;;
3333;SDS011;1679;50.392;8.008;2023-08-01T13:56:06;1.20;;;1.10;;
3333;SDS011;1679;50.392;8.008;2023-08-01T13:58:34;1.50;;;1.40;;
3333;SDS011;1679;50.392;8.008;2023-08-01T14:01:03;2.80;;;1.10;;
3333;SDS011;1679;50.392;8.008;2023-08-01T14:03:29;1.30;;;0.90;;
3333;SDS011;1679;50.392;8.008;2023-08-01T14:05:55;1.90;;;1.20;;
3333;SDS011;1679;50.392;8.008;2023-08-01T14:08:21;1.80;;;1.00;;
3333;SDS011;1679;50.392;8.008;2023-08-01T14:10:47;1.40;;;1.30;;
3333;SDS011;1679;50.392;8.008;2023-08-01T14:13:12;1.50;;;1.30;;
3333;SDS011;1679;50.392;8.008;2023-08-01T14:15:38;1.40;;;1.30;;
3333;SDS011;1679;50.392;8.008;2023-08-01T14:18:03;1.30;;;1.20;;
3333;SDS011;1679;50.392;8.008;2023-08-01T14:20:29;2.03;;;1.40;;
3333;SDS011;1679;50.392;8.008;2023-08-01T14:22:54;2.03;;;1.90;;
3333;SDS011;1679;50.392;8.008;2023-08-01T14:25:20;2.13;;;1.70;;
3333;SDS011;1679;50.392;8.008;2023-08-01T14:27:45;1.83;;;1.53;;
3333;SDS011;1679;50.392;8.008;2023-08-01T14:30:11;2.53;;;1.70;;
3333;SDS011;1679;50.392;8.008;2023-08-01T14:32:37;2.53;;;1.70;;
3333;SDS011;1679;50.392;8.008;2023-08-01T14:35:03;2.07;;;1.50;;
3333;SDS011;1679;50.392;8.008;2023-08-01T14:37:32;1.33;;;1.23;;
3333;SDS011;1679;50.392;8.008;2023-08-01T14:40:00;1.43;;;1.33;;
3333;SDS011;1679;50.392;8.008;2023-08-01T14:42:26;3.50;;;1.40;;
3333;SDS011;1679;50.392;8.008;2023-08-01T14:44:53;1.80;;;1.17;;
3333;SDS011;1679;50.392;8.008;2023-08-01T14:47:19;1.57;;;0.90;;
3333;SDS011;1679;50.392;8.008;2023-08-01T14:49:45;1.93;;;1.00;;
3333;SDS011;1679;50.392;8.008;2023-08-01T14:52:11;2.20;;;1.30;;
3333;SDS011;1679;50.392;8.008;2023-08-01T14:54:36;2.03;;;0.93;;
3333;SDS011;1679;50.392;8.008;2023-08-01T14:57:03;4.63;;;1.00;;
3333;SDS011;1679;50.392;8.008;2023-08-01T14:59:29;1.37;;;1.27;;
3333;SDS011;1679;50.392;8.008;2023-08-01T15:01:54;2.20;;;1.17;;
3333;SDS011;1679;50.392;8.008;2023-08-01T15:04:20;2.27;;;1.40;;
3333;SDS011;1679;50.392;8.008;2023-08-01T15:06:45;2.80;;;1.33;;
3333;SDS011;1679;50.392;8.008;2023-08-01T15:09:11;5.37;;;1.53;;
3333;SDS011;1679;50.392;8.008;2023-08-01T15:11:37;1.43;;;1.20;;
3333;SDS011;1679;50.392;8.008;2023-08-01T15:14:06;2.23;;;1.27;;